sensor_id;sensor_type;location;lat;lon;timestamp;pressure;altitude;pressure_sealevel;temperature;humidity
11011;BME280;5558;42.702;23.178;2022-07-29T00:00:05;93939.47;;;18.21;100.00
11011;BME280;5558;42.702;23.178;2022-07-29T00:02:32;93924.72;;;18.10;100.00
11011;BME280;5558;42.702;23.178;2022-07-29T00:04:59;93919.28;;;18.01;100.00
11011;BME280;5558;42.702;23.178;2022-07-29T00:07:26;93936.91;;;18.16;100.00
11011;BME280;5558;42.702;23.178;2022-07-29T00:09:52;93912.84;;;18.02;100.00
11011;BME280;5558;42.702;23.178;2022-07-29T00:12:20;93925.69;;;17.92;100.00
11011;BME280;5558;42.702;23.178;2022-07-29T00:14:48;93913.91;;;17.79;100.00
11011;BME280;5558;42.702;23.178;2022-07-29T00:17:15;93926.25;;;17.67;100.00
11011;BME280;5558;42.702;23.178;2022-07-29T00:19:42;93922.19;;;17.56;100.00
11011;BME280;5558;42.702;23.178;2022-07-29T00:22:09;93928.31;;;17.70;100.00
11011;BME280;5558;42.702;23.178;2022-07-29T00:24:36;93938.88;;;17.88;100.00
11011;BME280;5558;42.702;23.178;2022-07-29T00:27:03;93935.59;;;17.91;100.00
11011;BME280;5558;42.702;23.178;2022-07-29T00:29:30;93934.44;;;17.84;100.00
11011;BME280;5558;42.702;23.178;2022-07-29T00:31:58;93936.28;;;17.97;100.00
11011;BME280;5558;42.702;23.178;2022-07-29T00:34:25;93934.50;;;17.92;100.00
11011;BME280;5558;42.702;23.178;2022-07-29T00:37:09;93945.19;;;18.06;100.00
11011;BME280;5558;42.702;23.178;2022-07-29T00:39:36;93938.09;;;18.10;100.00
11011;BME280;5558;42.702;23.178;2022-07-29T00:42:04;93932.63;;;18.15;100.00
11011;BME280;5558;42.702;23.178;2022-07-29T00:44:36;93934.41;;;18.19;100.00
11011;BME280;5558;42.702;23.178;2022-07-29T00:47:04;93923.56;;;18.24;100.00
11011;BME280;5558;42.702;23.178;2022-07-29T00:49:31;93929.03;;;17.97;100.00
11011;BME280;5558;42.702;23.178;2022-07-29T00:51:58;93925.81;;;18.09;100.00
11011;BME280;5558;42.702;23.178;2022-07-29T00:54:26;93919.53;;;18.13;100.00
11011;BME280;5558;42.702;23.178;2022-07-29T00:56:55;93928.03;;;17.93;100.00
11011;BME280;5558;42.702;23.178;2022-07-29T00:59:22;93915.22;;;17.68;100.00
11011;BME280;5558;42.702;23.178;2022-07-29T01:01:48;93911.03;;;17.76;100.00
11011;BME280;5558;42.702;23.178;2022-07-29T01:04:17;93906.81;;;17.61;100.00
11011;BME280;5558;42.702;23.178;2022-07-29T01:06:43;93898.00;;;17.47;100.00
11011;BME280;5558;42.702;23.178;2022-07-29T01:09:11;93898.72;;;17.26;100.00
11011;BME280;5558;42.702;23.178;2022-07-29T01:11:38;93886.22;;;17.35;100.00
11011;BME280;5558;42.702;23.178;2022-07-29T01:14:06;93885.50;;;17.43;100.00
11011;BME280;5558;42.702;23.178;2022-07-29T01:16:40;93900.31;;;17.54;100.00
11011;BME280;5558;42.702;23.178;2022-07-29T01:19:19;93888.69;;;17.45;100.00
11011;BME280;5558;42.702;23.178;2022-07-29T01:21:57;93883.56;;;17.35;100.00
11011;BME280;5558;42.702;23.178;2022-07-29T01:24:53;93898.72;;;17.53;100.00
11011;BME280;5558;42.702;23.178;2022-07-29T01:27:36;93893.03;;;17.41;100.00
11011;BME280;5558;42.702;23.178;2022-07-29T01:30:07;93877.81;;;17.28;100.00
11011;BME280;5558;42.702;23.178;2022-07-29T01:32:36;93895.72;;;17.54;100.00
11011;BME280;5558;42.702;23.178;2022-07-29T01:35:06;93881.63;;;17.62;100.00
11011;BME280;5558;42.702;23.178;2022-07-29T01:37:43;93889.94;;;17.61;100.00
11011;BME280;5558;42.702;23.178;2022-07-29T01:40:16;93875.84;;;17.47;100.00
11011;BME280;5558;42.702;23.178;2022-07-29T01:42:50;93883.72;;;17.65;100.00
11011;BME280;5558;42.702;23.178;2022-07-29T01:45:23;93888.94;;;17.70;100.00
11011;BME280;5558;42.702;23.178;2022-07-29T01:47:56;93887.16;;;17.66;100.00
11011;BME280;5558;42.702;23.178;2022-07-29T01:50:30;93884.03;;;17.64;100.00
11011;BME280;5558;42.702;23.178;2022-07-29T01:53:00;93885.09;;;17.63;100.00
11011;BME280;5558;42.702;23.178;2022-07-29T01:55:31;93879.59;;;17.46;100.00
11011;BME280;5558;42.702;23.178;2022-07-29T01:57:59;93883.94;;;17.55;100.00
11011;BME280;5558;42.702;23.178;2022-07-29T02:00:28;93878.06;;;17.67;100.00
11011;BME280;5558;42.702;23.178;2022-07-29T02:02:58;93865.63;;;17.71;100.00
11011;BME280;5558;42.702;23.178;2022-07-29T02:05:28;93867.00;;;17.82;100.00
11011;BME280;5558;42.702;23.178;2022-07-29T02:07:57;93870.03;;;17.89;100.00
11011;BME280;5558;42.702;23.178;2022-07-29T02:10:30;93871.94;;;17.88;100.00
11011;BME280;5558;42.702;23.178;2022-07-29T02:12:58;93866.31;;;17.98;100.00
11011;BME280;5558;42.702;23.178;2022-07-29T02:15:29;93865.41;;;18.03;100.00
11011;BME280;5558;42.702;23.178;2022-07-29T02:18:00;93862.50;;;17.91;100.00
11011;BME280;5558;42.702;23.178;2022-07-29T02:20:28;93865.53;;;17.98;100.00
11011;BME280;5558;42.702;23.178;2022-07-29T02:22:57;93863.22;;;18.05;100.00
11011;BME280;5558;42.702;23.178;2022-07-29T02:25:25;93855.78;;;18.02;100.00
11011;BME280;5558;42.702;23.178;2022-07-29T02:27:53;93866.13;;;17.95;100.00
11011;BME280;5558;42.702;23.178;2022-07-29T02:30:22;93867.00;;;18.04;100.00
11011;BME280;5558;42.702;23.178;2022-07-29T02:32:51;93857.25;;;18.08;100.00
11011;BME280;5558;42.702;23.178;2022-07-29T02:35:20;93851.53;;;18.01;100.00
11011;BME280;5558;42.702;23.178;2022-07-29T02:37:48;93856.66;;;18.11;100.00
11011;BME280;5558;42.702;23.178;2022-07-29T02:40:31;93854.53;;;17.99;100.00
11011;BME280;5558;42.702;23.178;2022-07-29T02:42:59;93864.09;;;17.56;100.00
11011;BME280;5558;42.702;23.178;2022-07-29T02:45:27;93864.03;;;17.48;100.00
11011;BME280;5558;42.702;23.178;2022-07-29T02:47:58;93854.22;;;17.79;100.00
11011;BME280;5558;42.702;23.178;2022-07-29T02:50:31;93853.38;;;17.92;100.00
11011;BME280;5558;42.702;23.178;2022-07-29T02:53:02;93846.53;;;17.64;100.00
11011;BME280;5558;42.702;23.178;2022-07-29T02:55:33;93851.78;;;17.69;100.00
11011;BME280;5558;42.702;23.178;2022-07-29T02:58:06;93861.03;;;17.85;100.00
11011;BME280;5558;42.702;23.178;2022-07-29T03:00:37;93837.72;;;17.85;100.00
11011;BME280;5558;42.702;23.178;2022-07-29T03:03:10;93858.66;;;18.05;100.00
11011;BME280;5558;42.702;23.178;2022-07-29T03:05:38;93852.88;;;18.12;100.00
11011;BME280;5558;42.702;23.178;2022-07-29T03:08:08;93856.53;;;18.16;100.00
11011;BME280;5558;42.702;23.178;2022-07-29T03:10:36;93858.09;;;18.17;100.00
11011;BME280;5558;42.702;23.178;2022-07-29T03:13:04;93854.63;;;18.16;100.00
11011;BME280;5558;42.702;23.178;2022-07-29T03:15:31;93859.69;;;18.18;100.00
11011;BME280;5558;42.702;23.178;2022-07-29T03:17:59;93855.91;;;18.19;100.00
11011;BME280;5558;42.702;23.178;2022-07-29T03:20:28;93853.03;;;18.15;100.00
11011;BME280;5558;42.702;23.178;2022-07-29T03:22:55;93853.28;;;18.05;100.00
11011;BME280;5558;42.702;23.178;2022-07-29T03:25:21;93865.28;;;18.08;100.00
11011;BME280;5558;42.702;23.178;2022-07-29T03:27:48;93867.19;;;18.07;100.00
11011;BME280;5558;42.702;23.178;2022-07-29T03:30:15;93874.06;;;18.00;100.00
11011;BME280;5558;42.702;23.178;2022-07-29T03:32:42;93861.28;;;17.97;100.00
11011;BME280;5558;42.702;23.178;2022-07-29T03:35:10;93866.13;;;17.95;100.00
11011;BME280;5558;42.702;23.178;2022-07-29T03:37:38;93874.66;;;17.97;100.00
11011;BME280;5558;42.702;23.178;2022-07-29T03:40:08;93875.09;;;17.90;100.00
11011;BME280;5558;42.702;23.178;2022-07-29T03:42:38;93869.75;;;17.90;100.00
11011;BME280;5558;42.702;23.178;2022-07-29T03:45:09;93874.00;;;17.91;100.00
11011;BME280;5558;42.702;23.178;2022-07-29T03:47:38;93869.63;;;17.95;100.00
11011;BME280;5558;42.702;23.178;2022-07-29T03:50:08;93867.50;;;18.06;100.00
11011;BME280;5558;42.702;23.178;2022-07-29T03:52:38;93860.66;;;18.22;100.00
11011;BME280;5558;42.702;23.178;2022-07-29T03:55:06;93866.28;;;18.65;100.00
11011;BME280;5558;42.702;23.178;2022-07-29T03:57:34;93866.59;;;19.02;100.00
11011;BME280;5558;42.702;23.178;2022-07-29T04:00:04;93861.03;;;19.47;100.00
11011;BME280;5558;42.702;23.178;2022-07-29T04:02:31;93867.38;;;19.93;100.00
11011;BME280;5558;42.702;23.178;2022-07-29T04:04:58;93860.38;;;20.35;100.00
11011;BME280;5558;42.702;23.178;2022-07-29T04:07:25;93851.88;;;20.79;100.00
11011;BME280;5558;42.702;23.178;2022-07-29T04:09:53;93857.75;;;21.19;100.00
11011;BME280;5558;42.702;23.178;2022-07-29T04:12:20;93848.09;;;21.18;100.00
11011;BME280;5558;42.702;23.178;2022-07-29T04:14:47;93850.53;;;21.02;100.00
11011;BME280;5558;42.702;23.178;2022-07-29T04:17:15;93858.16;;;20.92;100.00
11011;BME280;5558;42.702;23.178;2022-07-29T04:19:42;93857.72;;;20.81;100.00
11011;BME280;5558;42.702;23.178;2022-07-29T04:22:08;93857.63;;;20.69;100.00
11011;BME280;5558;42.702;23.178;2022-07-29T04:24:35;93855.41;;;20.63;100.00
11011;BME280;5558;42.702;23.178;2022-07-29T04:27:03;93860.66;;;20.59;100.00
11011;BME280;5558;42.702;23.178;2022-07-29T04:29:30;93865.09;;;20.55;100.00
11011;BME280;5558;42.702;23.178;2022-07-29T04:31:57;93857.50;;;20.48;100.00
11011;BME280;5558;42.702;23.178;2022-07-29T04:34:23;93864.81;;;20.48;100.00
11011;BME280;5558;42.702;23.178;2022-07-29T04:36:50;93867.63;;;20.51;100.00
11011;BME280;5558;42.702;23.178;2022-07-29T04:39:17;93871.09;;;20.52;100.00
11011;BME280;5558;42.702;23.178;2022-07-29T04:41:44;93875.25;;;20.49;100.00
11011;BME280;5558;42.702;23.178;2022-07-29T04:44:12;93865.91;;;20.47;100.00
11011;BME280;5558;42.702;23.178;2022-07-29T04:46:39;93862.91;;;20.40;100.00
11011;BME280;5558;42.702;23.178;2022-07-29T04:49:06;93868.13;;;20.45;100.00
11011;BME280;5558;42.702;23.178;2022-07-29T04:51:33;93881.38;;;20.50;100.00
11011;BME280;5558;42.702;23.178;2022-07-29T04:54:01;93877.25;;;20.61;100.00
11011;BME280;5558;42.702;23.178;2022-07-29T04:56:28;93879.31;;;20.64;100.00
11011;BME280;5558;42.702;23.178;2022-07-29T04:58:56;93873.75;;;20.69;100.00
11011;BME280;5558;42.702;23.178;2022-07-29T05:01:24;93890.03;;;20.73;100.00
11011;BME280;5558;42.702;23.178;2022-07-29T05:03:51;93879.44;;;20.76;100.00
11011;BME280;5558;42.702;23.178;2022-07-29T05:06:18;93883.97;;;20.93;100.00
11011;BME280;5558;42.702;23.178;2022-07-29T05:08:45;93888.09;;;20.99;100.00
11011;BME280;5558;42.702;23.178;2022-07-29T05:11:13;93876.50;;;21.07;100.00
11011;BME280;5558;42.702;23.178;2022-07-29T05:13:40;93877.84;;;21.21;100.00
11011;BME280;5558;42.702;23.178;2022-07-29T05:16:08;93871.94;;;21.57;100.00
11011;BME280;5558;42.702;23.178;2022-07-29T05:18:36;93875.91;;;22.01;97.68
11011;BME280;5558;42.702;23.178;2022-07-29T05:21:03;93885.63;;;22.34;94.42
11011;BME280;5558;42.702;23.178;2022-07-29T05:23:29;93880.78;;;22.93;90.95
11011;BME280;5558;42.702;23.178;2022-07-29T05:25:56;93886.81;;;24.10;82.90
11011;BME280;5558;42.702;23.178;2022-07-29T05:28:23;93885.56;;;24.48;77.43
11011;BME280;5558;42.702;23.178;2022-07-29T05:30:49;93891.88;;;24.79;74.29
11011;BME280;5558;42.702;23.178;2022-07-29T05:33:16;93886.63;;;25.80;69.57
11011;BME280;5558;42.702;23.178;2022-07-29T05:35:44;93894.59;;;26.80;62.22
11011;BME280;5558;42.702;23.178;2022-07-29T05:38:11;93888.63;;;27.58;58.34
11011;BME280;5558;42.702;23.178;2022-07-29T05:40:38;93889.06;;;28.42;55.02
11011;BME280;5558;42.702;23.178;2022-07-29T05:43:04;93884.59;;;28.90;52.90
11011;BME280;5558;42.702;23.178;2022-07-29T05:45:31;93885.91;;;29.39;50.37
11011;BME280;5558;42.702;23.178;2022-07-29T05:47:58;93885.94;;;29.43;48.65
11011;BME280;5558;42.702;23.178;2022-07-29T05:50:25;93899.28;;;29.15;49.96
11011;BME280;5558;42.702;23.178;2022-07-29T05:52:53;93896.34;;;29.74;48.22
11011;BME280;5558;42.702;23.178;2022-07-29T05:55:19;93886.97;;;30.26;46.11
11011;BME280;5558;42.702;23.178;2022-07-29T05:57:47;93894.47;;;30.39;45.80
11011;BME280;5558;42.702;23.178;2022-07-29T06:00:14;93899.56;;;30.44;45.64
11011;BME280;5558;42.702;23.178;2022-07-29T06:02:41;93895.09;;;31.01;44.57
11011;BME280;5558;42.702;23.178;2022-07-29T06:05:08;93898.72;;;31.37;43.47
11011;BME280;5558;42.702;23.178;2022-07-29T06:07:36;93911.28;;;32.04;41.96
11011;BME280;5558;42.702;23.178;2022-07-29T06:10:05;93908.53;;;31.83;42.01
11011;BME280;5558;42.702;23.178;2022-07-29T06:12:32;93893.19;;;32.56;40.90
11011;BME280;5558;42.702;23.178;2022-07-29T06:14:58;93891.66;;;32.38;41.16
11011;BME280;5558;42.702;23.178;2022-07-29T06:17:25;93899.44;;;32.67;40.80
11011;BME280;5558;42.702;23.178;2022-07-29T06:19:52;93902.81;;;33.06;40.25
11011;BME280;5558;42.702;23.178;2022-07-29T06:22:19;93900.00;;;33.17;39.46
11011;BME280;5558;42.702;23.178;2022-07-29T06:24:45;93898.63;;;33.53;39.51
11011;BME280;5558;42.702;23.178;2022-07-29T06:27:13;93890.66;;;33.07;39.72
11011;BME280;5558;42.702;23.178;2022-07-29T06:29:41;93889.59;;;33.53;39.23
11011;BME280;5558;42.702;23.178;2022-07-29T06:32:08;93894.81;;;33.33;39.25
11011;BME280;5558;42.702;23.178;2022-07-29T06:34:35;93894.47;;;31.88;41.21
11011;BME280;5558;42.702;23.178;2022-07-29T06:37:06;93888.22;;;31.88;42.68
11011;BME280;5558;42.702;23.178;2022-07-29T06:39:33;93896.81;;;31.83;42.35
11011;BME280;5558;42.702;23.178;2022-07-29T06:42:00;93887.31;;;32.54;41.59
11011;BME280;5558;42.702;23.178;2022-07-29T06:44:28;93894.34;;;32.66;40.84
11011;BME280;5558;42.702;23.178;2022-07-29T06:46:55;93891.53;;;32.73;40.74
11011;BME280;5558;42.702;23.178;2022-07-29T06:49:22;93893.25;;;32.25;41.98
11011;BME280;5558;42.702;23.178;2022-07-29T06:51:49;93889.34;;;31.76;42.02
11011;BME280;5558;42.702;23.178;2022-07-29T06:54:16;93891.31;;;31.90;43.43
11011;BME280;5558;42.702;23.178;2022-07-29T06:56:43;93886.63;;;32.04;42.09
11011;BME280;5558;42.702;23.178;2022-07-29T06:59:11;93882.66;;;32.37;41.37
11011;BME280;5558;42.702;23.178;2022-07-29T07:01:41;93884.91;;;32.74;40.92
11011;BME280;5558;42.702;23.178;2022-07-29T07:04:09;93888.13;;;33.34;40.07
11011;BME280;5558;42.702;23.178;2022-07-29T07:06:37;93881.66;;;34.16;38.38
11011;BME280;5558;42.702;23.178;2022-07-29T07:09:04;93889.78;;;34.23;38.04
11011;BME280;5558;42.702;23.178;2022-07-29T07:11:31;93884.50;;;34.47;37.67
11011;BME280;5558;42.702;23.178;2022-07-29T07:13:57;93880.97;;;33.51;37.98
11011;BME280;5558;42.702;23.178;2022-07-29T07:16:24;93889.13;;;32.89;39.65
11011;BME280;5558;42.702;23.178;2022-07-29T07:18:52;93887.41;;;32.08;41.62
11011;BME280;5558;42.702;23.178;2022-07-29T07:21:19;93877.97;;;32.27;40.04
11011;BME280;5558;42.702;23.178;2022-07-29T07:23:46;93895.97;;;32.39;40.39
11011;BME280;5558;42.702;23.178;2022-07-29T07:26:13;93890.50;;;32.28;40.67
11011;BME280;5558;42.702;23.178;2022-07-29T07:28:40;93880.69;;;32.41;41.05
11011;BME280;5558;42.702;23.178;2022-07-29T07:31:08;93891.28;;;32.39;40.88
11011;BME280;5558;42.702;23.178;2022-07-29T07:33:35;93888.59;;;31.90;41.05
11011;BME280;5558;42.702;23.178;2022-07-29T07:36:04;93881.56;;;31.92;41.60
11011;BME280;5558;42.702;23.178;2022-07-29T07:38:31;93879.59;;;31.86;40.94
11011;BME280;5558;42.702;23.178;2022-07-29T07:40:58;93884.69;;;31.98;41.19
11011;BME280;5558;42.702;23.178;2022-07-29T07:45:33;93877.63;;;31.97;41.43
11011;BME280;5558;42.702;23.178;2022-07-29T07:48:02;93879.59;;;31.86;41.77
11011;BME280;5558;42.702;23.178;2022-07-29T07:50:29;93881.94;;;31.73;42.71
11011;BME280;5558;42.702;23.178;2022-07-29T07:52:56;93869.41;;;31.72;42.58
11011;BME280;5558;42.702;23.178;2022-07-29T07:55:24;93876.00;;;31.15;43.36
11011;BME280;5558;42.702;23.178;2022-07-29T07:57:51;93873.25;;;31.15;43.33
11011;BME280;5558;42.702;23.178;2022-07-29T08:00:18;93876.44;;;32.15;42.47
11011;BME280;5558;42.702;23.178;2022-07-29T08:02:46;93865.50;;;31.73;40.09
11011;BME280;5558;42.702;23.178;2022-07-29T08:05:13;93877.19;;;31.32;40.37
11011;BME280;5558;42.702;23.178;2022-07-29T08:07:43;93874.91;;;31.79;40.17
11011;BME280;5558;42.702;23.178;2022-07-29T08:10:10;93883.13;;;31.69;42.60
11011;BME280;5558;42.702;23.178;2022-07-29T08:12:37;93876.06;;;31.61;40.09
11011;BME280;5558;42.702;23.178;2022-07-29T08:15:04;93877.63;;;31.55;41.14
11011;BME280;5558;42.702;23.178;2022-07-29T08:17:33;93885.00;;;31.26;42.15
11011;BME280;5558;42.702;23.178;2022-07-29T08:20:01;93876.91;;;29.82;44.25
11011;BME280;5558;42.702;23.178;2022-07-29T08:22:27;93877.03;;;29.49;47.38
11011;BME280;5558;42.702;23.178;2022-07-29T08:24:54;93876.16;;;28.65;46.86
11011;BME280;5558;42.702;23.178;2022-07-29T08:27:22;93871.91;;;27.82;50.32
11011;BME280;5558;42.702;23.178;2022-07-29T08:29:48;93875.88;;;27.39;50.77
11011;BME280;5558;42.702;23.178;2022-07-29T08:32:15;93863.72;;;27.33;54.34
11011;BME280;5558;42.702;23.178;2022-07-29T08:34:42;93881.91;;;27.07;52.46
11011;BME280;5558;42.702;23.178;2022-07-29T08:37:12;93872.28;;;27.13;52.54
11011;BME280;5558;42.702;23.178;2022-07-29T08:39:39;93866.25;;;27.45;52.13
11011;BME280;5558;42.702;23.178;2022-07-29T08:42:06;93865.34;;;27.60;52.98
11011;BME280;5558;42.702;23.178;2022-07-29T08:44:35;93866.59;;;27.67;55.48
11011;BME280;5558;42.702;23.178;2022-07-29T08:47:02;93864.28;;;27.42;51.15
11011;BME280;5558;42.702;23.178;2022-07-29T08:49:30;93863.06;;;27.40;51.23
11011;BME280;5558;42.702;23.178;2022-07-29T08:51:57;93862.16;;;27.55;51.83
11011;BME280;5558;42.702;23.178;2022-07-29T08:54:26;93863.25;;;27.77;50.28
11011;BME280;5558;42.702;23.178;2022-07-29T08:56:54;93849.16;;;27.94;51.25
11011;BME280;5558;42.702;23.178;2022-07-29T08:59:24;93855.84;;;27.77;50.07
11011;BME280;5558;42.702;23.178;2022-07-29T09:01:53;93853.38;;;27.91;49.77
11011;BME280;5558;42.702;23.178;2022-07-29T09:04:21;93849.56;;;27.96;49.77
11011;BME280;5558;42.702;23.178;2022-07-29T09:06:52;93851.75;;;27.87;51.44
11011;BME280;5558;42.702;23.178;2022-07-29T09:09:21;93847.56;;;27.67;50.85
11011;BME280;5558;42.702;23.178;2022-07-29T09:11:49;93853.81;;;27.71;51.79
11011;BME280;5558;42.702;23.178;2022-07-29T09:14:18;93844.91;;;27.70;52.14
11011;BME280;5558;42.702;23.178;2022-07-29T09:16:47;93851.00;;;27.90;48.60
11011;BME280;5558;42.702;23.178;2022-07-29T09:19:26;93840.72;;;28.02;48.88
11011;BME280;5558;42.702;23.178;2022-07-29T09:21:54;93842.56;;;28.24;50.02
11011;BME280;5558;42.702;23.178;2022-07-29T09:24:25;93847.75;;;28.36;47.52
11011;BME280;5558;42.702;23.178;2022-07-29T09:26:54;93822.53;;;28.10;50.01
11011;BME280;5558;42.702;23.178;2022-07-29T09:29:23;93849.88;;;28.20;50.12
11011;BME280;5558;42.702;23.178;2022-07-29T09:31:51;93839.19;;;28.05;46.95
11011;BME280;5558;42.702;23.178;2022-07-29T09:34:22;93850.31;;;28.22;47.62
11011;BME280;5558;42.702;23.178;2022-07-29T09:36:50;93845.69;;;28.56;48.85
11011;BME280;5558;42.702;23.178;2022-07-29T09:39:27;93843.09;;;28.66;46.28
11011;BME280;5558;42.702;23.178;2022-07-29T09:41:57;93846.81;;;28.55;46.26
11011;BME280;5558;42.702;23.178;2022-07-29T09:44:24;93842.91;;;28.52;45.77
11011;BME280;5558;42.702;23.178;2022-07-29T09:46:55;93840.31;;;28.63;45.50
11011;BME280;5558;42.702;23.178;2022-07-29T09:49:22;93835.63;;;28.60;45.12
11011;BME280;5558;42.702;23.178;2022-07-29T09:51:59;93835.41;;;28.46;45.50
11011;BME280;5558;42.702;23.178;2022-07-29T09:54:26;93828.88;;;28.50;44.95
11011;BME280;5558;42.702;23.178;2022-07-29T09:56:56;93829.72;;;28.54;45.41
11011;BME280;5558;42.702;23.178;2022-07-29T09:59:23;93820.91;;;28.68;46.27
11011;BME280;5558;42.702;23.178;2022-07-29T10:01:51;93823.78;;;28.86;45.52
11011;BME280;5558;42.702;23.178;2022-07-29T10:04:19;93827.31;;;28.86;44.38
11011;BME280;5558;42.702;23.178;2022-07-29T10:07:01;93811.66;;;28.76;45.59
11011;BME280;5558;42.702;23.178;2022-07-29T10:09:30;93810.59;;;28.88;45.30
11011;BME280;5558;42.702;23.178;2022-07-29T10:12:06;93817.31;;;29.01;44.46
11011;BME280;5558;42.702;23.178;2022-07-29T10:14:35;93798.75;;;29.10;43.69
11011;BME280;5558;42.702;23.178;2022-07-29T10:17:03;93797.09;;;29.02;44.99
11011;BME280;5558;42.702;23.178;2022-07-29T10:19:31;93804.84;;;29.00;44.17
11011;BME280;5558;42.702;23.178;2022-07-29T10:21:58;93792.38;;;28.95;44.19
11011;BME280;5558;42.702;23.178;2022-07-29T10:24:26;93795.38;;;28.83;44.03
11011;BME280;5558;42.702;23.178;2022-07-29T10:26:54;93800.78;;;28.80;44.57
11011;BME280;5558;42.702;23.178;2022-07-29T10:29:25;93795.47;;;28.94;44.82
11011;BME280;5558;42.702;23.178;2022-07-29T10:32:05;93784.94;;;28.96;44.07
11011;BME280;5558;42.702;23.178;2022-07-29T10:34:43;93787.06;;;29.09;44.84
11011;BME280;5558;42.702;23.178;2022-07-29T10:37:20;93791.47;;;29.21;45.87
11011;BME280;5558;42.702;23.178;2022-07-29T10:40:02;93785.19;;;29.17;42.64
11011;BME280;5558;42.702;23.178;2022-07-29T10:42:53;93773.41;;;29.09;43.19
11011;BME280;5558;42.702;23.178;2022-07-29T10:45:23;93773.84;;;29.15;42.42
11011;BME280;5558;42.702;23.178;2022-07-29T10:48:03;93771.47;;;29.10;44.18
11011;BME280;5558;42.702;23.178;2022-07-29T10:50:52;93767.91;;;29.02;44.71
11011;BME280;5558;42.702;23.178;2022-07-29T10:53:18;93762.16;;;29.11;45.40
11011;BME280;5558;42.702;23.178;2022-07-29T10:55:46;93760.19;;;29.11;43.10
11011;BME280;5558;42.702;23.178;2022-07-29T10:58:16;93764.91;;;29.18;45.42
11011;BME280;5558;42.702;23.178;2022-07-29T11:00:45;93752.94;;;29.29;44.37
11011;BME280;5558;42.702;23.178;2022-07-29T11:03:42;93755.69;;;29.33;43.58
11011;BME280;5558;42.702;23.178;2022-07-29T11:06:10;93757.63;;;29.32;43.23
11011;BME280;5558;42.702;23.178;2022-07-29T11:08:37;93751.47;;;29.42;43.40
11011;BME280;5558;42.702;23.178;2022-07-29T11:11:36;93745.28;;;29.52;43.76
11011;BME280;5558;42.702;23.178;2022-07-29T11:14:05;93743.44;;;29.67;43.98
11011;BME280;5558;42.702;23.178;2022-07-29T11:16:59;93748.91;;;29.67;41.13
11011;BME280;5558;42.702;23.178;2022-07-29T11:19:28;93742.69;;;29.73;42.62
11011;BME280;5558;42.702;23.178;2022-07-29T11:21:54;93752.91;;;29.83;42.22
11011;BME280;5558;42.702;23.178;2022-07-29T11:24:22;93742.78;;;29.87;43.35
11011;BME280;5558;42.702;23.178;2022-07-29T11:27:14;93734.13;;;29.71;41.82
11011;BME280;5558;42.702;23.178;2022-07-29T11:29:53;93745.34;;;29.59;43.54
11011;BME280;5558;42.702;23.178;2022-07-29T11:32:23;93736.13;;;29.81;44.43
11011;BME280;5558;42.702;23.178;2022-07-29T11:35:12;93739.34;;;30.05;43.52
11011;BME280;5558;42.702;23.178;2022-07-29T11:37:39;93734.63;;;29.95;41.65
11011;BME280;5558;42.702;23.178;2022-07-29T11:40:16;93733.03;;;29.83;41.20
11011;BME280;5558;42.702;23.178;2022-07-29T11:42:45;93734.56;;;29.84;41.68
11011;BME280;5558;42.702;23.178;2022-07-29T11:45:15;93727.59;;;29.90;43.20
11011;BME280;5558;42.702;23.178;2022-07-29T11:47:52;93728.38;;;29.94;42.06
11011;BME280;5558;42.702;23.178;2022-07-29T11:50:31;93727.97;;;29.88;41.40
11011;BME280;5558;42.702;23.178;2022-07-29T11:52:59;93723.72;;;29.95;42.36
11011;BME280;5558;42.702;23.178;2022-07-29T11:55:27;93716.69;;;30.01;43.36
11011;BME280;5558;42.702;23.178;2022-07-29T11:57:55;93723.00;;;30.12;43.26
11011;BME280;5558;42.702;23.178;2022-07-29T12:00:28;93722.09;;;29.83;42.11
11011;BME280;5558;42.702;23.178;2022-07-29T12:02:58;93706.84;;;29.68;43.18
11011;BME280;5558;42.702;23.178;2022-07-29T12:05:34;93715.03;;;29.71;41.55
11011;BME280;5558;42.702;23.178;2022-07-29T12:08:08;93716.63;;;29.79;42.28
11011;BME280;5558;42.702;23.178;2022-07-29T12:10:36;93715.06;;;29.75;42.58
11011;BME280;5558;42.702;23.178;2022-07-29T12:13:03;93713.47;;;29.74;41.26
11011;BME280;5558;42.702;23.178;2022-07-29T12:15:30;93709.25;;;29.94;42.33
11011;BME280;5558;42.702;23.178;2022-07-29T12:17:58;93723.28;;;29.85;41.86
11011;BME280;5558;42.702;23.178;2022-07-29T12:20:26;93721.78;;;29.99;42.16
11011;BME280;5558;42.702;23.178;2022-07-29T12:22:54;93720.63;;;30.07;40.85
11011;BME280;5558;42.702;23.178;2022-07-29T12:25:23;93695.25;;;29.99;40.51
11011;BME280;5558;42.702;23.178;2022-07-29T12:27:59;93711.72;;;30.20;40.83
11011;BME280;5558;42.702;23.178;2022-07-29T12:30:38;93714.03;;;30.18;40.82
11011;BME280;5558;42.702;23.178;2022-07-29T12:33:18;93704.31;;;30.24;41.24
11011;BME280;5558;42.702;23.178;2022-07-29T12:35:47;93697.63;;;30.15;40.50
11011;BME280;5558;42.702;23.178;2022-07-29T12:38:15;93697.31;;;30.27;40.73
11011;BME280;5558;42.702;23.178;2022-07-29T12:40:42;93686.41;;;30.30;41.47
11011;BME280;5558;42.702;23.178;2022-07-29T12:43:12;93694.97;;;30.25;40.26
11011;BME280;5558;42.702;23.178;2022-07-29T12:45:40;93699.19;;;30.19;40.21
11011;BME280;5558;42.702;23.178;2022-07-29T12:48:07;93689.13;;;30.23;39.30
11011;BME280;5558;42.702;23.178;2022-07-29T12:50:37;93701.94;;;30.12;38.42
11011;BME280;5558;42.702;23.178;2022-07-29T12:53:17;93693.00;;;30.22;39.26
11011;BME280;5558;42.702;23.178;2022-07-29T12:55:46;93687.56;;;30.26;40.29
11011;BME280;5558;42.702;23.178;2022-07-29T12:58:25;93688.38;;;30.37;38.41
11011;BME280;5558;42.702;23.178;2022-07-29T13:00:59;93675.47;;;30.48;40.02
11011;BME280;5558;42.702;23.178;2022-07-29T13:03:26;93685.22;;;30.35;40.09
11011;BME280;5558;42.702;23.178;2022-07-29T13:05:55;93671.16;;;30.29;39.69
11011;BME280;5558;42.702;23.178;2022-07-29T13:08:21;93667.69;;;30.36;39.37